Time;durP1;ratioP1;P1;durP2;ratioP2;P2;SDS_P1;SDS_P2;PMS_P1;PMS_P2;Temp;Humidity;BMP_temperature;BMP_pressure;BME280_temperature;BME280_humidity;BME280_pressure;Samples;Min_cycle;Max_cycle;Signal;HPM_P1;HPM_P2
2022/03/09 00:00:05;;;;;;;37.10;14.68;;;;;;;-2.81;100.00;94897.56;5099295;27;20052;-47
2022/03/09 00:02:32;;;;;;;38.95;17.73;;;;;;;-2.89;100.00;94888.06;5101677;28;20047;-48
2022/03/09 00:04:59;;;;;;;25.48;12.75;;;;;;;-2.89;100.00;94890.63;5104963;28;20043;-48
2022/03/09 00:07:27;;;;;;;28.90;14.52;;;;;;;-2.90;100.00;94889.03;5102065;27;20733;-46
2022/03/09 00:09:54;;;;;;;29.88;15.18;;;;;;;-2.85;100.00;94892.88;5104257;27;20050;-47
2022/03/09 00:12:24;;;;;;;31.17;14.15;;;;;;;-2.90;100.00;94891.59;5100306;28;20819;-47
2022/03/09 00:14:51;;;;;;;33.45;16.05;;;;;;;-2.97;100.00;94895.66;5102241;27;20131;-47
2022/03/09 00:17:18;;;;;;;38.15;15.57;;;;;;;-2.95;100.00;94893.78;5102547;28;20539;-47
2022/03/09 00:19:45;;;;;;;32.72;14.57;;;;;;;-2.93;100.00;94896.97;5103490;28;20046;-48
2022/03/09 00:22:12;;;;;;;29.85;15.18;;;;;;;-2.96;100.00;94892.16;5105122;28;20048;-49
2022/03/09 00:24:39;;;;;;;28.83;12.52;;;;;;;-2.97;100.00;94900.75;5105641;28;20071;-49
2022/03/09 00:27:06;;;;;;;30.85;14.77;;;;;;;-3.05;100.00;94898.13;5107496;28;20413;-48
2022/03/09 00:29:33;;;;;;;29.63;14.10;;;;;;;-3.15;100.00;94893.13;5098919;27;20417;-49
2022/03/09 00:32:00;;;;;;;28.75;12.82;;;;;;;-3.25;100.00;94891.56;5110313;28;20055;-47
2022/03/09 00:34:27;;;;;;;31.70;14.07;;;;;;;-3.28;100.00;94888.38;5108490;28;20036;-47
2022/03/09 00:36:54;;;;;;;35.33;14.05;;;;;;;-3.35;100.00;94884.81;5109861;27;20040;-48
2022/03/09 00:39:21;;;;;;;30.30;13.65;;;;;;;-3.34;100.00;94891.47;5112895;27;20052;-53
2022/03/09 00:41:47;;;;;;;30.73;14.25;;;;;;;-3.36;100.00;94888.28;5112111;27;20112;-50
2022/03/09 00:44:14;;;;;;;27.88;14.82;;;;;;;-3.43;100.00;94887.25;5113697;27;20092;-48
2022/03/09 00:46:42;;;;;;;26.60;12.93;;;;;;;-3.46;100.00;94879.88;5109775;27;20043;-51
2022/03/09 00:49:09;;;;;;;31.90;15.45;;;;;;;-3.59;100.00;94864.94;5110704;27;20425;-49
2022/03/09 00:51:36;;;;;;;27.50;13.93;;;;;;;-3.56;100.00;94879.16;5111969;27;20100;-47
2022/03/09 00:54:02;;;;;;;31.95;13.02;;;;;;;-3.53;100.00;94873.75;5114949;27;20492;-48
2022/03/09 00:56:29;;;;;;;41.53;15.77;;;;;;;-3.55;100.00;94875.66;5112892;27;20849;-51
2022/03/09 00:58:56;;;;;;;35.17;16.02;;;;;;;-3.54;100.00;94877.28;5112809;27;20063;-51
2022/03/09 01:01:22;;;;;;;27.85;12.63;;;;;;;-3.59;100.00;94869.25;5113310;27;21850;-47
2022/03/09 01:03:50;;;;;;;38.10;16.35;;;;;;;-3.61;100.00;94866.06;5113742;27;20046;-47
2022/03/09 01:06:16;;;;;;;36.58;16.55;;;;;;;-3.64;100.00;94862.03;5111591;27;20043;-47
2022/03/09 01:08:43;;;;;;;33.92;15.43;;;;;;;-3.67;100.00;94858.03;5113956;27;20050;-47
2022/03/09 01:11:10;;;;;;;27.25;14.57;;;;;;;-3.68;100.00;94861.50;5111483;27;20497;-47
2022/03/09 01:13:37;;;;;;;25.60;14.23;;;;;;;-3.67;100.00;94858.03;5117328;27;20058;-47
2022/03/09 01:16:04;;;;;;;33.17;16.63;;;;;;;-3.70;100.00;94858.31;5118309;27;20512;-48
2022/03/09 01:18:32;;;;;;;31.52;15.18;;;;;;;-3.67;100.00;94852.16;5111251;27;20047;-48
2022/03/09 01:20:59;;;;;;;30.75;15.93;;;;;;;-3.71;100.00;94851.63;5113500;27;20165;-48
2022/03/09 01:23:26;;;;;;;31.45;15.48;;;;;;;-3.68;100.00;94855.63;5111588;27;20046;-48
2022/03/09 01:25:53;;;;;;;29.35;16.08;;;;;;;-3.72;100.00;94855.13;5111153;27;20759;-50
2022/03/09 01:28:19;;;;;;;35.78;16.13;;;;;;;-3.69;100.00;94854.84;5114108;27;20076;-48
2022/03/09 01:30:46;;;;;;;33.63;16.42;;;;;;;-3.73;100.00;94852.72;5112446;27;20130;-52
2022/03/09 01:33:13;;;;;;;41.45;18.02;;;;;;;-3.70;100.00;94848.13;5110003;27;20038;-51
2022/03/09 01:35:40;;;;;;;38.33;18.02;;;;;;;-3.66;100.00;94854.53;5111223;27;20969;-50
2022/03/09 01:38:07;;;;;;;35.28;18.27;;;;;;;-3.67;100.00;94847.84;5116189;27;20039;-47
2022/03/09 01:40:34;;;;;;;43.30;16.05;;;;;;;-3.74;100.00;94851.91;5112541;27;20447;-47
2022/03/09 01:43:00;;;;;;;33.25;14.18;;;;;;;-3.74;100.00;94841.72;5113504;27;20489;-51
2022/03/09 01:45:27;;;;;;;30.90;14.40;;;;;;;-3.67;100.00;94852.94;5112740;27;20050;-47
2022/03/09 01:47:54;;;;;;;40.63;17.33;;;;;;;-3.67;100.00;94847.84;5111411;27;20036;-47
2022/03/09 01:50:21;;;;;;;27.38;15.13;;;;;;;-3.70;100.00;94852.44;5110332;27;20043;-47
2022/03/09 01:52:48;;;;;;;30.63;15.75;;;;;;;-3.71;100.00;94854.19;5115497;27;20397;-47
2022/03/09 01:55:15;;;;;;;21.55;12.43;;;;;;;-3.75;100.00;94860.47;5113691;27;20050;-47
2022/03/09 01:57:41;;;;;;;35.53;16.73;;;;;;;-3.75;100.00;94855.38;5112850;27;20530;-47
2022/03/09 02:00:10;;;;;;;43.25;18.15;;;;;;;-3.70;100.00;94850.69;5110081;27;20504;-47
2022/03/09 02:02:36;;;;;;;30.30;15.80;;;;;;;-3.72;100.00;94854.31;5113119;27;20390;-48
2022/03/09 02:05:04;;;;;;;33.53;14.32;;;;;;;-3.77;100.00;94836.13;5114441;27;20071;-48
2022/03/09 02:10:20;;;;;;;38.08;16.90;;;;;;;-3.60;100.00;94852.38;5109024;27;20064;-47
2022/03/09 02:12:47;;;;;;;37.10;14.32;;;;;;;-3.66;100.00;94859.63;5111350;27;20143;-48
2022/03/09 02:15:14;;;;;;;35.15;18.15;;;;;;;-3.59;100.00;94848.88;5109421;27;20090;-49
2022/03/09 02:17:41;;;;;;;32.40;15.82;;;;;;;-3.57;100.00;94852.09;5115852;27;20043;-49
2022/03/09 02:20:09;;;;;;;14.38;6.57;;;;;;;-3.63;100.00;94847.56;5109072;27;20043;-48
2022/03/09 02:22:38;;;;;;;41.05;17.75;;;;;;;-3.69;100.00;94848.94;5111281;27;20047;-49
2022/03/09 02:25:08;;;;;;;27.95;14.07;;;;;;;-3.61;100.00;94845.69;5109658;27;20531;-49
2022/03/09 02:27:35;;;;;;;31.60;16.63;;;;;;;-3.66;100.00;94846.91;5110885;27;20047;-48
2022/03/09 02:30:06;;;;;;;20.20;10.25;;;;;;;-3.68;100.00;94846.25;5115349;27;20035;-47
2022/03/09 02:32:32;;;;;;;26.92;13.90;;;;;;;-3.65;100.00;94847.72;5110103;27;20085;-47
2022/03/09 02:34:59;;;;;;;32.22;15.48;;;;;;;-3.59;100.00;94843.78;5114374;27;20039;-47
2022/03/09 02:37:27;;;;;;;25.98;13.20;;;;;;;-3.63;100.00;94847.56;5110761;27;20123;-48
2022/03/09 02:39:53;;;;;;;25.25;13.07;;;;;;;-3.59;100.00;94848.88;5108405;27;20100;-47
2022/03/09 02:42:20;;;;;;;38.55;16.15;;;;;;;-3.59;100.00;94848.88;5108876;27;20035;-51
2022/03/09 02:44:47;;;;;;;27.33;15.80;;;;;;;-3.65;100.00;94845.97;5111728;27;20044;-47
2022/03/09 02:47:14;;;;;;;26.60;9.60;;;;;;;-3.76;100.00;94842.81;5114841;27;20058;-52
2022/03/09 02:49:40;;;;;;;31.35;16.58;;;;;;;-3.68;100.00;94845.44;5108983;27;20059;-47
2022/03/09 02:52:10;;;;;;;19.63;10.63;;;;;;;-3.72;100.00;94849.22;5107793;27;20047;-51
2022/03/09 02:54:36;;;;;;;30.70;14.10;;;;;;;-3.72;100.00;94857.66;5110914;27;20039;-49
2022/03/09 02:57:03;;;;;;;30.63;14.60;;;;;;;-3.72;100.00;94850.03;5109464;27;20100;-47
2022/03/09 02:59:30;;;;;;;28.45;11.05;;;;;;;-3.74;100.00;94857.00;5105949;27;20062;-49
2022/03/09 03:01:57;;;;;;;29.45;13.35;;;;;;;-3.76;100.00;94848.72;5115167;27;20104;-47
2022/03/09 03:04:24;;;;;;;29.80;12.48;;;;;;;-3.78;100.00;94845.50;5110443;27;20043;-48
2022/03/09 03:06:50;;;;;;;33.63;14.25;;;;;;;-3.81;100.00;94850.88;5108980;27;20047;-47
2022/03/09 03:09:17;;;;;;;27.58;13.02;;;;;;;-3.86;100.00;94858.13;5110266;27;20043;-47
2022/03/09 03:11:45;;;;;;;34.35;16.65;;;;;;;-3.95;100.00;94853.88;5110461;27;20075;-47
2022/03/09 03:14:11;;;;;;;29.48;15.32;;;;;;;-3.92;100.00;94856.16;5117839;27;20186;-47
2022/03/09 03:16:38;;;;;;;31.77;14.50;;;;;;;-4.05;100.00;94848.84;5110487;27;20056;-50
2022/03/09 03:19:05;;;;;;;19.42;9.48;;;;;;;-3.99;100.00;94861.00;5106681;27;20054;-47
2022/03/09 03:21:32;;;;;;;26.40;13.90;;;;;;;-4.00;100.00;94858.59;5113286;27;20051;-47
2022/03/09 03:23:59;;;;;;;16.05;9.63;;;;;;;-4.01;100.00;94862.91;5107119;27;20108;-48
2022/03/09 03:26:28;;;;;;;29.23;14.73;;;;;;;-4.00;100.00;94856.06;5108193;27;20039;-50
2022/03/09 03:28:55;;;;;;;31.50;14.07;;;;;;;-4.03;100.00;94863.03;5106940;27;20059;-48
2022/03/09 03:31:22;;;;;;;25.60;13.23;;;;;;;-4.03;100.00;94857.94;5107974;27;20061;-47
2022/03/09 03:33:50;;;;;;;22.88;11.77;;;;;;;-4.03;100.00;94857.94;5108193;27;20408;-48
2022/03/09 03:36:17;;;;;;;29.95;13.70;;;;;;;-4.14;100.00;94853.03;5116390;27;20032;-48
2022/03/09 03:38:44;;;;;;;23.48;12.13;;;;;;;-4.06;100.00;94862.50;5110701;27;20048;-47
2022/03/09 03:41:11;;;;;;;32.85;16.40;;;;;;;-4.07;100.00;94856.63;5110732;27;20100;-47
2022/03/09 03:43:38;;;;;;;17.27;10.10;;;;;;;-4.08;100.00;94865.19;5110377;27;20082;-47
2022/03/09 03:46:04;;;;;;;29.10;13.20;;;;;;;-4.10;100.00;94861.19;5115470;27;20159;-50
2022/03/09 03:48:32;;;;;;;21.85;12.35;;;;;;;-4.13;100.00;94866.56;5113402;27;20031;-47
2022/03/09 03:50:59;;;;;;;27.92;13.43;;;;;;;-4.12;100.00;94868.16;5107685;27;20044;-49
2022/03/09 03:53:26;;;;;;;27.80;12.10;;;;;;;-4.15;100.00;94864.13;5107427;27;20043;-50
2022/03/09 03:55:53;;;;;;;23.58;13.05;;;;;;;-4.14;100.00;94858.13;5109001;27;20610;-49
2022/03/09 03:58:19;;;;;;;22.90;10.50;;;;;;;-4.11;100.00;94855.28;5106043;27;20039;-46
2022/03/09 04:00:47;;;;;;;26.67;12.15;;;;;;;-4.21;100.00;94864.72;5106054;27;20040;-49
2022/03/09 04:03:14;;;;;;;26.02;12.73;;;;;;;-4.20;100.00;94866.28;5107084;28;20122;-49
2022/03/09 04:05:40;;;;;;;22.45;11.52;;;;;;;-4.28;100.00;94858.56;5107654;27;20112;-47
2022/03/09 04:08:07;;;;;;;15.20;8.55;;;;;;;-4.29;100.00;94862.03;5112692;27;20031;-47
2022/03/09 04:10:34;;;;;;;24.02;13.50;;;;;;;-4.29;100.00;94856.97;5111817;27;20043;-51
2022/03/09 04:13:03;;;;;;;24.65;13.02;;;;;;;-4.27;100.00;94860.16;5106824;27;20513;-48
2022/03/09 04:15:32;;;;;;;12.23;6.65;;;;;;;-4.31;100.00;94858.84;5106147;28;20046;-47
2022/03/09 04:17:59;;;;;;;30.38;14.63;;;;;;;-4.29;100.00;94856.97;5105748;28;20039;-49
2022/03/09 04:20:26;;;;;;;24.63;12.48;;;;;;;-4.32;100.00;94864.84;5111348;28;20044;-48
2022/03/09 04:22:53;;;;;;;22.98;9.63;;;;;;;-4.47;100.00;94857.66;5105779;28;20100;-46
2022/03/09 04:25:19;;;;;;;22.27;11.57;;;;;;;-4.44;100.00;94859.94;5084876;28;20051;-48
2022/03/09 04:27:47;;;;;;;29.00;14.63;;;;;;;-4.40;100.00;94864.75;5105399;28;20040;-49
2022/03/09 04:30:14;;;;;;;29.33;12.93;;;;;;;-4.36;100.00;94861.78;5105747;28;20505;-47
2022/03/09 04:32:41;;;;;;;27.20;13.23;;;;;;;-4.40;100.00;94859.69;5106192;28;20055;-50
2022/03/09 04:35:08;;;;;;;23.65;14.02;;;;;;;-4.44;100.00;94854.84;5104421;28;20109;-47
2022/03/09 04:37:36;;;;;;;26.00;14.20;;;;;;;-4.38;100.00;94858.59;5105278;28;20055;-48
2022/03/09 04:40:05;;;;;;;27.27;12.75;;;;;;;-4.39;100.00;94863.81;5109374;28;20825;-47
2022/03/09 04:42:32;;;;;;;34.25;14.23;;;;;;;-4.44;100.00;94864.25;5105483;28;20185;-47
2022/03/09 04:44:59;;;;;;;15.77;6.50;;;;;;;-4.53;100.00;94855.69;5107030;28;20032;-49
2022/03/09 04:47:26;;;;;;;17.35;9.10;;;;;;;-4.46;100.00;94871.19;5106967;28;20032;-48
2022/03/09 04:49:52;;;;;;;25.00;10.30;;;;;;;-4.55;100.00;94867.75;5108096;28;20044;-47
2022/03/09 04:52:20;;;;;;;32.42;14.93;;;;;;;-4.58;100.00;94862.13;5105898;28;20529;-47
2022/03/09 04:54:47;;;;;;;20.88;9.85;;;;;;;-4.56;100.00;94861.03;5108587;28;20043;-47
2022/03/09 04:57:14;;;;;;;23.75;12.30;;;;;;;-4.56;100.00;94871.22;5106849;28;20126;-47
2022/03/09 04:59:41;;;;;;;21.60;9.98;;;;;;;-4.57;100.00;94867.06;5106280;28;20036;-47
2022/03/09 05:02:09;;;;;;;26.90;13.52;;;;;;;-4.54;100.00;94859.16;5106302;28;20436;-48
2022/03/09 05:04:36;;;;;;;16.70;8.77;;;;;;;-4.52;100.00;94867.47;5111160;28;20043;-48
2022/03/09 05:07:04;;;;;;;26.20;13.50;;;;;;;-4.52;100.00;94867.47;5109114;28;20433;-48
2022/03/09 05:09:31;;;;;;;33.00;17.20;;;;;;;-4.50;100.00;94872.41;5106801;28;20088;-48
2022/03/09 05:11:59;;;;;;;30.98;15.98;;;;;;;-4.46;100.00;94873.75;5106409;28;20474;-51
2022/03/09 05:14:26;;;;;;;29.90;13.90;;;;;;;-4.48;100.00;94873.88;5105888;28;20039;-47
2022/03/09 05:16:53;;;;;;;24.30;11.77;;;;;;;-4.49;100.00;94877.34;5106576;28;20051;-48
2022/03/09 05:19:20;;;;;;;34.55;19.05;;;;;;;-4.39;100.00;94881.59;5103292;28;20055;-47
2022/03/09 05:21:47;;;;;;;34.42;18.02;;;;;;;-4.40;100.00;94885.09;5108431;28;20047;-48
2022/03/09 05:24:34;;;;;;;26.38;13.85;;;;;;;-4.44;100.00;94890.44;5090433;27;20045;-48
2022/03/09 05:27:00;;;;;;;34.90;15.57;;;;;;;-4.50;100.00;94895.28;5110243;27;20104;-47
2022/03/09 05:29:28;;;;;;;12.77;7.72;;;;;;;-4.58;100.00;94893.41;5110234;27;20043;-48
2022/03/09 05:31:54;;;;;;;39.65;16.50;;;;;;;-4.54;100.00;94893.94;5110981;27;20040;-47
2022/03/09 05:34:21;;;;;;;18.95;10.60;;;;;;;-4.46;100.00;94897.41;5114794;27;20047;-46
2022/03/09 05:36:48;;;;;;;13.52;6.88;;;;;;;-4.55;100.00;94893.16;5110008;27;20058;-48
2022/03/09 05:39:15;;;;;;;29.70;12.98;;;;;;;-4.57;100.00;94895.03;5109796;27;20104;-47
2022/03/09 05:41:41;;;;;;;34.70;16.65;;;;;;;-4.59;100.00;94906.25;5109660;27;20066;-48
2022/03/09 05:44:08;;;;;;;21.92;12.00;;;;;;;-4.57;100.00;94905.22;5112543;27;20088;-50
2022/03/09 05:46:35;;;;;;;15.93;9.52;;;;;;;-4.65;100.00;94902.53;5109612;27;20044;-51
2022/03/09 05:49:02;;;;;;;20.13;10.70;;;;;;;-4.60;100.00;94910.56;5109839;27;20081;-48
2022/03/09 05:51:31;;;;;;;21.85;12.38;;;;;;;-4.58;100.00;94903.59;5107595;27;20103;-51
2022/03/09 05:53:58;;;;;;;24.00;13.65;;;;;;;-4.50;100.00;94906.25;5109659;27;20043;-50
2022/03/09 05:56:25;;;;;;;23.23;12.25;;;;;;;-4.50;100.00;94910.53;5107653;27;20513;-48
2022/03/09 05:58:52;;;;;;;19.25;9.43;;;;;;;-4.57;100.00;94910.28;5108247;27;20047;-47
2022/03/09 06:01:23;;;;;;;23.00;12.60;;;;;;;-4.56;100.00;94906.00;5105967;27;20058;-47
2022/03/09 06:03:50;;;;;;;18.98;10.98;;;;;;;-4.40;100.00;94926.56;5109480;27;20191;-49
2022/03/09 06:06:17;;;;;;;47.05;14.38;;;;;;;-4.34;100.00;94926.06;5109112;27;20096;-50
2022/03/09 06:08:44;;;;;;;31.92;13.05;;;;;;;-4.33;100.00;94931.94;5108646;27;22652;-49
2022/03/09 06:11:10;;;;;;;24.33;12.07;;;;;;;-4.24;100.00;94926.03;5107404;27;20101;-47
2022/03/09 06:13:37;;;;;;;21.83;13.18;;;;;;;-4.11;100.00;94929.06;5108535;27;20055;-47
2022/03/09 06:16:05;;;;;;;20.95;9.60;;;;;;;-4.06;100.00;94924.34;5100353;27;20051;-47
2022/03/09 06:18:33;;;;;;;15.02;8.52;;;;;;;-3.91;100.00;94926.44;5106391;27;20112;-48
2022/03/09 06:20:59;;;;;;;29.55;12.82;;;;;;;-3.73;100.00;94929.06;5108560;27;20448;-51
2022/03/09 06:23:26;;;;;;;37.63;13.98;;;;;;;-3.67;100.00;94926.78;5115180;27;20040;-50
2022/03/09 06:25:53;;;;;;;28.13;10.75;;;;;;;-3.63;100.00;94941.78;5105046;27;20054;-51
2022/03/09 06:28:20;;;;;;;22.27;10.20;;;;;;;-3.61;100.00;94932.25;5110778;27;20043;-49
2022/03/09 06:30:47;;;;;;;18.38;8.73;;;;;;;-3.74;100.00;94933.38;5109120;27;20043;-47
2022/03/09 06:33:14;;;;;;;33.20;15.82;;;;;;;-3.62;100.00;94933.19;5111692;27;20587;-48
2022/03/09 06:35:41;;;;;;;28.70;8.93;;;;;;;-3.50;100.00;94935.38;5110457;27;20039;-47
2022/03/09 06:38:11;;;;;;;26.80;13.38;;;;;;;-3.32;100.00;94943.06;5089401;27;20112;-48
2022/03/09 06:40:38;;;;;;;34.08;16.23;;;;;;;-3.20;100.00;94942.91;5113079;27;20064;-49
2022/03/09 06:43:05;;;;;;;30.25;13.32;;;;;;;-3.29;99.32;94942.00;5107768;27;20683;-47
2022/03/09 06:45:32;;;;;;;25.85;11.48;;;;;;;-3.35;100.00;94947.66;5115859;27;20047;-47
2022/03/09 06:48:00;;;;;;;42.33;15.95;;;;;;;-3.45;100.00;94942.63;5108957;27;20108;-47
2022/03/09 06:50:27;;;;;;;26.55;14.35;;;;;;;-3.27;100.00;94948.53;5111983;27;20039;-49
2022/03/09 06:52:55;;;;;;;23.60;12.05;;;;;;;-3.36;100.00;94957.03;5109845;27;20048;-47
2022/03/09 06:55:22;;;;;;;29.88;13.57;;;;;;;-3.37;99.65;94960.53;5108846;27;20043;-49
2022/03/09 06:57:48;;;;;;;25.60;14.27;;;;;;;-3.40;99.41;94955.72;5111693;27;20043;-52
2022/03/09 07:00:17;;;;;;;22.27;12.73;;;;;;;-3.31;98.85;94959.97;5109742;27;20063;-49
2022/03/09 07:02:46;;;;;;;21.13;10.70;;;;;;;-3.24;97.14;94964.50;5106828;27;20059;-49
2022/03/09 07:05:14;;;;;;;28.50;10.85;;;;;;;-3.31;96.77;94944.69;5107675;27;20040;-48
2022/03/09 07:07:41;;;;;;;44.92;21.30;;;;;;;-3.34;97.65;94955.16;5109040;27;20047;-47
2022/03/09 07:10:10;;;;;;;22.40;13.07;;;;;;;-3.30;98.40;94946.28;5106458;27;20039;-48
2022/03/09 07:12:41;;;;;;;35.13;16.02;;;;;;;-3.30;98.10;94946.28;5110900;27;20074;-47
2022/03/09 07:15:08;;;;;;;26.65;14.15;;;;;;;-3.26;98.03;94951.88;5106485;27;20039;-47
2022/03/09 07:17:36;;;;;;;25.55;13.55;;;;;;;-3.33;97.67;94956.78;5105524;27;20043;-48
2022/03/09 07:20:03;;;;;;;37.63;15.27;;;;;;;-3.25;98.07;94957.81;5103334;27;20110;-49
2022/03/09 07:22:36;;;;;;;25.48;11.90;;;;;;;-3.23;97.68;94950.81;5108706;27;20057;-48
2022/03/09 07:25:03;;;;;;;28.45;13.43;;;;;;;-3.29;97.91;94947.91;5106915;27;20478;-47
2022/03/09 07:27:30;;;;;;;34.45;14.73;;;;;;;-3.27;99.26;94951.09;5105538;27;20062;-52
2022/03/09 07:29:57;;;;;;;32.40;14.55;;;;;;;-3.11;99.96;94952.22;5107871;27;20062;-47
2022/03/09 07:32:24;;;;;;;30.73;13.57;;;;;;;-3.07;97.88;94946.69;5106915;27;20040;-47
2022/03/09 07:35:11;;;;;;;16.10;11.30;;;;;;;-2.93;98.16;94960.69;5106115;27;20047;-47
2022/03/09 07:37:38;;;;;;;25.45;12.32;;;;;;;-2.97;97.05;94961.94;5112845;27;20047;-47
2022/03/09 07:40:06;;;;;;;35.15;16.65;;;;;;;-2.96;96.11;94958.41;5107219;27;20044;-49
2022/03/09 07:42:33;;;;;;;31.05;13.02;;;;;;;-2.99;95.85;94953.63;5101940;27;20041;-48
2022/03/09 07:45:00;;;;;;;28.92;12.35;;;;;;;-2.98;96.33;94960.31;5087114;27;20065;-47
2022/03/09 07:47:27;;;;;;;27.17;13.18;;;;;;;-2.99;96.98;94958.72;5103000;27;20472;-47
2022/03/09 07:49:56;;;;;;;37.55;14.90;;;;;;;-2.90;97.30;94957.84;5107592;27;20107;-46
2022/03/09 07:52:22;;;;;;;23.85;10.43;;;;;;;-2.66;97.74;94953.94;5102986;27;20591;-48
2022/03/09 07:54:49;;;;;;;34.13;15.38;;;;;;;-2.41;97.60;94952.38;5105920;27;20824;-49
2022/03/09 07:57:16;;;;;;;30.83;15.48;;;;;;;-2.25;95.91;94946.59;5108359;27;20059;-47
2022/03/09 07:59:43;;;;;;;35.72;15.90;;;;;;;-2.17;95.55;94949.19;5107845;27;20058;-47
2022/03/09 08:02:09;;;;;;;34.00;16.00;;;;;;;-2.02;95.84;94941.00;5101071;27;20059;-48
2022/03/09 08:04:37;;;;;;;36.75;15.85;;;;;;;-1.88;95.03;94932.78;5115734;27;20080;-50
2022/03/09 08:07:04;;;;;;;18.30;9.88;;;;;;;-1.82;93.54;94942.41;5110870;27;20144;-47
2022/03/09 08:09:30;;;;;;;34.65;15.90;;;;;;;-1.63;93.86;94945.69;5082383;28;20051;-50
2022/03/09 08:11:57;;;;;;;34.92;16.73;;;;;;;-1.59;91.74;94947.75;5098351;27;20051;-50
2022/03/09 08:14:24;;;;;;;29.30;10.98;;;;;;;-1.59;91.01;94952.06;5109830;28;20127;-47
2022/03/09 08:16:51;;;;;;;18.73;9.68;;;;;;;-1.60;89.56;94942.84;5100910;28;20056;-48
2022/03/09 08:19:18;;;;;;;30.88;12.25;;;;;;;-1.47;88.15;94944.97;5104158;28;20031;-47
2022/03/09 08:21:44;;;;;;;26.67;13.52;;;;;;;-1.47;88.61;94945.75;5105016;28;20056;-49
2022/03/09 08:24:11;;;;;;;24.02;12.73;;;;;;;-1.44;88.46;94948.00;5112606;28;20058;-48
2022/03/09 08:26:38;;;;;;;38.35;16.65;;;;;;;-1.42;90.40;94938.44;5109024;27;20064;-47
2022/03/09 08:29:05;;;;;;;26.05;13.02;;;;;;;-1.31;87.95;94939.13;5109553;28;20043;-48
2022/03/09 08:31:32;;;;;;;32.60;14.02;;;;;;;-1.22;88.73;94948.41;5106575;28;20047;-47
2022/03/09 08:33:58;;;;;;;24.00;12.93;;;;;;;-1.00;89.56;94932.47;5105649;28;20036;-47
2022/03/09 08:36:25;;;;;;;22.77;11.50;;;;;;;-0.88;87.99;94939.84;5101225;28;20047;-48
2022/03/09 08:38:53;;;;;;;29.77;15.43;;;;;;;-0.96;86.43;94926.06;5102073;28;20055;-49
2022/03/09 08:41:21;;;;;;;31.00;14.48;;;;;;;-0.81;86.73;94933.97;5102696;28;20845;-48
2022/03/09 08:43:48;;;;;;;28.70;14.68;;;;;;;-0.70;84.42;94927.72;5103708;28;20075;-50
2022/03/09 08:46:16;;;;;;;37.13;14.27;;;;;;;-0.59;83.59;94929.97;5099437;28;20880;-48
2022/03/09 08:48:45;;;;;;;30.20;12.68;;;;;;;-0.62;84.16;94927.72;5099636;28;20035;-50
2022/03/09 08:51:13;;;;;;;24.20;12.23;;;;;;;-0.43;81.54;94918.94;5100896;28;20051;-50
2022/03/09 08:53:40;;;;;;;13.77;6.78;;;;;;;-0.38;80.28;94926.13;5103208;28;20039;-47
2022/03/09 08:56:07;;;;;;;14.68;7.30;;;;;;;-0.75;80.69;94927.41;5107499;28;20044;-48
2022/03/09 08:58:36;;;;;;;22.05;11.35;;;;;;;-0.69;80.63;94931.09;5103110;27;20051;-48
2022/03/09 09:01:04;;;;;;;28.73;12.98;;;;;;;-0.44;82.61;94927.56;5105772;27;20043;-49
2022/03/09 09:03:31;;;;;;;20.23;9.85;;;;;;;-0.31;81.40;94910.94;5104767;27;20744;-50
2022/03/09 09:05:58;;;;;;;25.27;13.95;;;;;;;-0.20;80.19;94919.09;5108944;27;20047;-48
2022/03/09 09:08:25;;;;;;;32.95;13.90;;;;;;;-0.05;80.47;94905.63;5104485;27;20050;-49
2022/03/09 09:10:52;;;;;;;31.05;13.48;;;;;;;0.01;81.31;94910.09;5107964;27;20109;-48
2022/03/09 09:13:19;;;;;;;33.83;14.52;;;;;;;0.12;81.58;94902.06;5108185;27;20436;-48
2022/03/09 09:15:47;;;;;;;23.52;12.77;;;;;;;0.24;77.35;94909.41;5116034;27;20054;-50
2022/03/09 09:18:14;;;;;;;12.02;6.40;;;;;;;0.23;77.10;94905.22;5113705;27;20047;-49
2022/03/09 09:20:47;;;;;;;31.50;15.82;;;;;;;0.37;78.65;94909.66;5109305;27;20100;-49
2022/03/09 09:23:14;;;;;;;27.10;12.45;;;;;;;0.42;77.51;94917.66;5103566;27;20063;-49
2022/03/09 09:25:44;;;;;;;25.35;10.40;;;;;;;0.38;78.12;94906.16;5109712;27;20035;-48
2022/03/09 09:28:10;;;;;;;30.88;16.17;;;;;;;0.54;79.12;94900.97;5105854;27;20133;-49
2022/03/09 09:30:37;;;;;;;22.73;9.80;;;;;;;0.39;76.34;94897.50;5105321;27;20047;-52
2022/03/09 09:33:05;;;;;;;22.38;10.05;;;;;;;0.58;78.78;94906.56;5103165;27;20071;-48
2022/03/09 09:35:32;;;;;;;17.45;9.00;;;;;;;0.70;74.63;94905.22;5107771;27;20043;-48
2022/03/09 09:38:06;;;;;;;32.10;14.75;;;;;;;0.73;76.95;94904.06;5106355;27;20048;-49
2022/03/09 09:40:41;;;;;;;27.33;13.93;;;;;;;0.99;78.37;94908.91;5111185;27;20067;-53
2022/03/09 09:43:10;;;;;;;17.73;10.20;;;;;;;1.15;74.58;94913.13;5113420;27;20524;-52
2022/03/09 09:45:38;;;;;;;19.42;11.07;;;;;;;1.25;76.68;94913.72;5105508;27;20039;-49
2022/03/09 09:48:06;;;;;;;29.08;12.93;;;;;;;1.26;77.02;94905.06;5117676;27;20106;-48
2022/03/09 09:50:33;;;;;;;32.50;12.23;;;;;;;1.24;74.55;94913.88;5105676;27;20074;-49
2022/03/09 09:53:10;;;;;;;13.60;8.40;;;;;;;1.28;74.10;94897.97;5111616;27;20039;-49
2022/03/09 09:55:37;;;;;;;24.77;11.43;;;;;;;1.55;73.39;94892.47;5110309;27;20046;-50
2022/03/09 09:58:04;;;;;;;25.10;12.15;;;;;;;1.76;73.32;94909.81;5108592;27;20399;-50
2022/03/09 10:00:32;;;;;;;21.40;9.73;;;;;;;1.80;70.79;94900.75;5113744;27;20046;-48
2022/03/09 10:03:02;;;;;;;28.80;14.07;;;;;;;1.53;67.69;94905.47;5118948;27;20106;-49
2022/03/09 10:05:29;;;;;;;19.42;8.98;;;;;;;1.41;65.21;94906.88;5115694;27;20055;-51
2022/03/09 10:08:05;;;;;;;22.02;10.45;;;;;;;1.74;67.32;94893.78;5119948;27;21202;-49
2022/03/09 10:10:38;;;;;;;17.70;8.10;;;;;;;1.71;65.45;94898.28;5110057;27;20107;-49
2022/03/09 10:13:17;;;;;;;28.25;11.55;;;;;;;1.63;64.71;94885.50;5103405;27;20047;-51
2022/03/09 10:16:06;;;;;;;19.35;9.10;;;;;;;1.59;65.97;94898.88;5109298;27;20088;-50
2022/03/09 10:18:33;;;;;;;16.58;8.80;;;;;;;1.59;65.61;94899.66;5107814;27;20134;-48
2022/03/09 10:21:11;;;;;;;15.15;9.05;;;;;;;1.38;66.77;94886.69;5107651;27;20548;-51
2022/03/09 10:23:59;;;;;;;21.08;8.50;;;;;;;1.58;65.25;94871.59;5112458;27;20568;-48
2022/03/09 10:26:35;;;;;;;20.77;9.80;;;;;;;1.85;66.34;94883.06;5108839;27;20044;-48
2022/03/09 10:29:14;;;;;;;13.57;7.75;;;;;;;1.76;66.41;94881.56;5107276;27;20044;-49
2022/03/09 10:31:44;;;;;;;24.10;9.90;;;;;;;1.79;65.77;94873.50;5107166;27;20048;-48
2022/03/09 10:34:24;;;;;;;20.50;9.85;;;;;;;2.22;66.33;94884.00;5106164;27;20035;-48
2022/03/09 10:36:54;;;;;;;;;;;;;;;2.25;63.49;94883.63;5116489;27;20084;-49
2022/03/09 10:39:23;;;;;;;14.20;7.90;;;;;;;2.40;62.05;94881.84;5114639;27;19923;-51
2022/03/09 10:41:50;;;;;;;12.98;5.63;;;;;;;2.68;62.98;94873.47;5114065;27;20035;-51
2022/03/09 10:44:17;;;;;;;12.63;7.15;;;;;;;2.93;61.71;94881.66;5109979;27;20050;-53
2022/03/09 10:46:47;;;;;;;20.35;8.15;;;;;;;2.87;61.43;94878.03;5108943;27;20512;-48
2022/03/09 10:49:18;;;;;;;29.55;11.65;;;;;;;2.47;62.52;94881.94;5106211;27;20428;-49
2022/03/09 10:51:50;;;;;;;19.95;10.25;;;;;;;2.60;62.60;94871.00;5107312;27;20055;-48
2022/03/09 10:54:23;;;;;;;18.30;8.90;;;;;;;2.65;62.32;94874.63;5108311;27;20073;-51
2022/03/09 10:57:04;;;;;;;25.95;10.38;;;;;;;2.86;62.56;94873.88;5106958;27;20058;-48
2022/03/09 10:59:43;;;;;;;21.63;9.65;;;;;;;2.80;60.06;94866.09;5106156;27;20113;-49
2022/03/09 11:02:11;;;;;;;15.85;7.35;;;;;;;2.58;58.51;94878.13;5108645;27;20046;-52
2022/03/09 11:04:40;;;;;;;20.02;7.88;;;;;;;2.42;58.44;94864.47;5109740;27;20613;-49
2022/03/09 11:07:09;;;;;;;19.48;8.35;;;;;;;2.37;61.07;94866.00;5105048;27;20062;-51
2022/03/09 11:09:37;;;;;;;10.43;5.68;;;;;;;2.41;57.42;94877.50;5105249;27;20071;-48
2022/03/09 11:12:05;;;;;;;18.55;9.88;;;;;;;2.48;58.81;94858.63;5108322;27;20046;-49
2022/03/09 11:14:32;;;;;;;14.00;8.02;;;;;;;2.47;56.73;94866.50;5104696;27;20474;-48
2022/03/09 11:17:00;;;;;;;22.05;9.18;;;;;;;2.58;58.71;94862.69;5107161;27;20077;-48
2022/03/09 11:19:27;;;;;;;16.83;7.68;;;;;;;2.42;56.22;94861.91;5103511;27;20036;-48
2022/03/09 11:21:55;;;;;;;18.33;7.95;;;;;;;2.27;57.46;94867.06;5115272;27;20858;-48